sensor_id;sensor_type;location;lat;lon;timestamp;P1;durP1;ratioP1;P2;durP2;ratioP2
77146;SDS011;66121;52.584;9.694;2024-01-30T00:00:53;16.42;;;10.02;;
77146;SDS011;66121;52.584;9.694;2024-01-30T00:03:19;17.70;;;9.65;;
77146;SDS011;66121;52.584;9.694;2024-01-30T00:05:44;18.10;;;10.10;;
77146;SDS011;66121;52.584;9.694;2024-01-30T00:08:10;17.40;;;9.80;;
77146;SDS011;66121;52.584;9.694;2024-01-30T00:10:35;16.17;;;9.83;;
77146;SDS011;66121;52.584;9.694;2024-01-30T00:13:01;19.15;;;10.20;;
77146;SDS011;66121;52.584;9.694;2024-01-30T00:15:27;20.75;;;10.52;;
77146;SDS011;66121;52.584;9.694;2024-01-30T00:17:53;12.63;;;8.32;;
77146;SDS011;66121;52.584;9.694;2024-01-30T00:20:18;17.50;;;9.15;;
77146;SDS011;66121;52.584;9.694;2024-01-30T00:22:43;18.60;;;9.63;;
77146;SDS011;66121;52.584;9.694;2024-01-30T00:25:09;16.45;;;9.10;;
77146;SDS011;66121;52.584;9.694;2024-01-30T00:27:34;18.35;;;9.85;;
77146;SDS011;66121;52.584;9.694;2024-01-30T00:30:00;17.70;;;9.53;;
77146;SDS011;66121;52.584;9.694;2024-01-30T00:32:25;13.45;;;7.97;;
77146;SDS011;66121;52.584;9.694;2024-01-30T00:34:50;20.07;;;9.43;;
77146;SDS011;66121;52.584;9.694;2024-01-30T00:37:16;16.42;;;9.38;;
77146;SDS011;66121;52.584;9.694;2024-01-30T00:39:41;12.10;;;7.47;;
77146;SDS011;66121;52.584;9.694;2024-01-30T00:42:07;19.52;;;9.30;;
77146;SDS011;66121;52.584;9.694;2024-01-30T00:44:34;15.70;;;9.00;;
77146;SDS011;66121;52.584;9.694;2024-01-30T00:47:02;17.23;;;9.25;;
77146;SDS011;66121;52.584;9.694;2024-01-30T00:49:28;15.32;;;8.57;;
77146;SDS011;66121;52.584;9.694;2024-01-30T00:51:53;15.07;;;7.40;;
77146;SDS011;66121;52.584;9.694;2024-01-30T00:54:18;15.15;;;9.00;;
77146;SDS011;66121;52.584;9.694;2024-01-30T00:56:44;16.83;;;8.97;;
77146;SDS011;66121;52.584;9.694;2024-01-30T00:59:09;20.17;;;9.87;;
77146;SDS011;66121;52.584;9.694;2024-01-30T01:01:36;18.00;;;8.60;;
77146;SDS011;66121;52.584;9.694;2024-01-30T01:04:01;15.57;;;8.55;;
77146;SDS011;66121;52.584;9.694;2024-01-30T01:06:27;16.30;;;9.27;;
77146;SDS011;66121;52.584;9.694;2024-01-30T01:08:52;18.10;;;9.50;;
77146;SDS011;66121;52.584;9.694;2024-01-30T01:11:17;16.10;;;9.60;;
77146;SDS011;66121;52.584;9.694;2024-01-30T01:13:43;12.83;;;7.67;;
77146;SDS011;66121;52.584;9.694;2024-01-30T01:16:08;16.47;;;8.30;;
77146;SDS011;66121;52.584;9.694;2024-01-30T01:18:33;14.23;;;8.70;;
77146;SDS011;66121;52.584;9.694;2024-01-30T01:20:59;14.67;;;9.43;;
77146;SDS011;66121;52.584;9.694;2024-01-30T01:23:25;17.83;;;9.57;;
77146;SDS011;66121;52.584;9.694;2024-01-30T01:25:50;18.45;;;10.20;;
77146;SDS011;66121;52.584;9.694;2024-01-30T01:28:15;19.17;;;10.40;;
77146;SDS011;66121;52.584;9.694;2024-01-30T01:30:41;15.77;;;9.57;;
77146;SDS011;66121;52.584;9.694;2024-01-30T01:33:06;16.42;;;9.20;;
77146;SDS011;66121;52.584;9.694;2024-01-30T01:35:32;14.18;;;8.73;;
77146;SDS011;66121;52.584;9.694;2024-01-30T01:37:57;18.85;;;10.27;;
77146;SDS011;66121;52.584;9.694;2024-01-30T01:40:25;16.48;;;8.80;;
77146;SDS011;66121;52.584;9.694;2024-01-30T01:42:51;16.30;;;9.30;;
77146;SDS011;66121;52.584;9.694;2024-01-30T01:45:18;16.30;;;9.30;;
77146;SDS011;66121;52.584;9.694;2024-01-30T01:47:44;16.95;;;10.18;;
77146;SDS011;66121;52.584;9.694;2024-01-30T01:50:13;17.98;;;9.88;;
77146;SDS011;66121;52.584;9.694;2024-01-30T01:52:43;19.05;;;10.45;;
77146;SDS011;66121;52.584;9.694;2024-01-30T01:55:09;18.17;;;10.15;;
77146;SDS011;66121;52.584;9.694;2024-01-30T01:57:35;20.90;;;10.80;;
77146;SDS011;66121;52.584;9.694;2024-01-30T02:00:01;19.20;;;10.02;;
77146;SDS011;66121;52.584;9.694;2024-01-30T02:02:28;21.67;;;10.48;;
77146;SDS011;66121;52.584;9.694;2024-01-30T02:04:56;16.70;;;9.82;;
77146;SDS011;66121;52.584;9.694;2024-01-30T02:07:23;17.98;;;10.90;;
77146;SDS011;66121;52.584;9.694;2024-01-30T02:09:49;17.52;;;9.13;;
77146;SDS011;66121;52.584;9.694;2024-01-30T02:12:14;15.83;;;9.63;;
77146;SDS011;66121;52.584;9.694;2024-01-30T02:14:45;17.33;;;9.27;;
77146;SDS011;66121;52.584;9.694;2024-01-30T02:17:12;20.25;;;11.05;;
77146;SDS011;66121;52.584;9.694;2024-01-30T02:19:38;17.38;;;10.15;;
77146;SDS011;66121;52.584;9.694;2024-01-30T02:22:03;15.47;;;10.00;;
77146;SDS011;66121;52.584;9.694;2024-01-30T02:24:29;16.77;;;10.18;;
77146;SDS011;66121;52.584;9.694;2024-01-30T02:26:55;16.00;;;10.32;;
77146;SDS011;66121;52.584;9.694;2024-01-30T02:29:20;15.47;;;9.47;;
77146;SDS011;66121;52.584;9.694;2024-01-30T02:31:46;21.92;;;10.85;;
77146;SDS011;66121;52.584;9.694;2024-01-30T02:34:11;20.45;;;10.80;;
77146;SDS011;66121;52.584;9.694;2024-01-30T02:36:36;16.70;;;9.73;;
77146;SDS011;66121;52.584;9.694;2024-01-30T02:39:02;19.73;;;10.93;;
77146;SDS011;66121;52.584;9.694;2024-01-30T02:41:28;17.15;;;10.05;;
77146;SDS011;66121;52.584;9.694;2024-01-30T02:43:53;19.73;;;10.63;;
77146;SDS011;66121;52.584;9.694;2024-01-30T02:46:19;18.27;;;10.07;;
77146;SDS011;66121;52.584;9.694;2024-01-30T02:48:44;16.90;;;10.85;;
77146;SDS011;66121;52.584;9.694;2024-01-30T02:51:09;17.70;;;10.05;;
77146;SDS011;66121;52.584;9.694;2024-01-30T02:53:35;18.50;;;10.70;;
77146;SDS011;66121;52.584;9.694;2024-01-30T02:56:01;19.33;;;10.23;;
77146;SDS011;66121;52.584;9.694;2024-01-30T02:58:27;23.83;;;12.50;;
77146;SDS011;66121;52.584;9.694;2024-01-30T03:00:53;19.20;;;10.00;;
77146;SDS011;66121;52.584;9.694;2024-01-30T03:03:18;21.80;;;11.47;;
77146;SDS011;66121;52.584;9.694;2024-01-30T03:05:43;18.17;;;9.07;;
77146;SDS011;66121;52.584;9.694;2024-01-30T03:08:08;14.68;;;8.85;;
77146;SDS011;66121;52.584;9.694;2024-01-30T03:10:34;18.70;;;10.77;;
77146;SDS011;66121;52.584;9.694;2024-01-30T03:12:59;19.43;;;11.13;;
77146;SDS011;66121;52.584;9.694;2024-01-30T03:15:25;19.48;;;10.52;;
77146;SDS011;66121;52.584;9.694;2024-01-30T03:17:50;19.27;;;11.02;;
77146;SDS011;66121;52.584;9.694;2024-01-30T03:20:15;19.42;;;10.70;;
77146;SDS011;66121;52.584;9.694;2024-01-30T03:22:41;17.47;;;10.70;;
77146;SDS011;66121;52.584;9.694;2024-01-30T03:25:06;20.23;;;11.87;;
77146;SDS011;66121;52.584;9.694;2024-01-30T03:27:32;17.33;;;10.10;;
77146;SDS011;66121;52.584;9.694;2024-01-30T03:29:57;17.90;;;10.90;;
77146;SDS011;66121;52.584;9.694;2024-01-30T03:32:22;20.50;;;10.65;;
77146;SDS011;66121;52.584;9.694;2024-01-30T03:34:48;22.17;;;10.90;;
77146;SDS011;66121;52.584;9.694;2024-01-30T03:37:13;18.17;;;10.93;;
77146;SDS011;66121;52.584;9.694;2024-01-30T03:39:38;18.27;;;10.48;;
77146;SDS011;66121;52.584;9.694;2024-01-30T03:42:04;18.17;;;9.35;;
77146;SDS011;66121;52.584;9.694;2024-01-30T03:44:29;22.40;;;11.63;;
77146;SDS011;66121;52.584;9.694;2024-01-30T03:46:54;18.90;;;10.63;;
77146;SDS011;66121;52.584;9.694;2024-01-30T03:49:20;25.57;;;10.90;;
77146;SDS011;66121;52.584;9.694;2024-01-30T03:51:45;23.52;;;12.30;;
77146;SDS011;66121;52.584;9.694;2024-01-30T03:54:12;19.55;;;11.20;;
77146;SDS011;66121;52.584;9.694;2024-01-30T03:56:37;21.95;;;11.02;;
77146;SDS011;66121;52.584;9.694;2024-01-30T03:59:03;17.92;;;10.43;;
77146;SDS011;66121;52.584;9.694;2024-01-30T04:01:28;20.30;;;11.35;;
77146;SDS011;66121;52.584;9.694;2024-01-30T04:03:53;19.60;;;10.13;;
77146;SDS011;66121;52.584;9.694;2024-01-30T04:06:19;20.95;;;11.57;;
77146;SDS011;66121;52.584;9.694;2024-01-30T04:08:44;23.73;;;11.65;;
77146;SDS011;66121;52.584;9.694;2024-01-30T04:11:09;15.98;;;9.70;;
77146;SDS011;66121;52.584;9.694;2024-01-30T04:13:35;17.88;;;11.35;;
77146;SDS011;66121;52.584;9.694;2024-01-30T04:16:00;15.43;;;8.77;;
77146;SDS011;66121;52.584;9.694;2024-01-30T04:18:27;20.13;;;10.25;;
77146;SDS011;66121;52.584;9.694;2024-01-30T04:20:53;16.08;;;9.02;;
77146;SDS011;66121;52.584;9.694;2024-01-30T04:23:18;17.30;;;8.43;;
77146;SDS011;66121;52.584;9.694;2024-01-30T04:25:43;21.30;;;10.18;;
77146;SDS011;66121;52.584;9.694;2024-01-30T04:28:09;16.10;;;10.23;;
77146;SDS011;66121;52.584;9.694;2024-01-30T04:30:36;20.92;;;10.68;;
77146;SDS011;66121;52.584;9.694;2024-01-30T04:33:02;15.70;;;8.48;;
77146;SDS011;66121;52.584;9.694;2024-01-30T04:35:28;26.60;;;10.88;;
77146;SDS011;66121;52.584;9.694;2024-01-30T04:37:53;17.83;;;9.43;;
77146;SDS011;66121;52.584;9.694;2024-01-30T04:40:19;17.25;;;10.45;;
77146;SDS011;66121;52.584;9.694;2024-01-30T04:42:45;18.00;;;10.80;;
77146;SDS011;66121;52.584;9.694;2024-01-30T04:45:10;18.40;;;9.23;;
77146;SDS011;66121;52.584;9.694;2024-01-30T04:47:36;15.15;;;9.65;;
77146;SDS011;66121;52.584;9.694;2024-01-30T04:50:01;18.55;;;10.23;;
77146;SDS011;66121;52.584;9.694;2024-01-30T04:52:29;16.10;;;9.32;;
77146;SDS011;66121;52.584;9.694;2024-01-30T04:54:55;20.02;;;10.13;;
77146;SDS011;66121;52.584;9.694;2024-01-30T04:57:20;22.63;;;9.37;;
77146;SDS011;66121;52.584;9.694;2024-01-30T04:59:45;22.50;;;10.98;;
77146;SDS011;66121;52.584;9.694;2024-01-30T05:02:10;19.10;;;10.33;;
77146;SDS011;66121;52.584;9.694;2024-01-30T05:04:36;23.67;;;12.60;;
77146;SDS011;66121;52.584;9.694;2024-01-30T05:07:01;21.25;;;11.27;;
77146;SDS011;66121;52.584;9.694;2024-01-30T05:09:27;24.48;;;10.77;;
77146;SDS011;66121;52.584;9.694;2024-01-30T05:11:53;19.50;;;10.77;;
77146;SDS011;66121;52.584;9.694;2024-01-30T05:14:18;21.65;;;11.27;;
77146;SDS011;66121;52.584;9.694;2024-01-30T05:16:44;20.67;;;10.32;;
77146;SDS011;66121;52.584;9.694;2024-01-30T05:19:12;28.88;;;13.35;;
77146;SDS011;66121;52.584;9.694;2024-01-30T05:21:38;25.33;;;13.68;;
77146;SDS011;66121;52.584;9.694;2024-01-30T05:24:04;19.00;;;9.77;;
77146;SDS011;66121;52.584;9.694;2024-01-30T05:26:29;13.73;;;8.15;;
77146;SDS011;66121;52.584;9.694;2024-01-30T05:28:55;21.58;;;10.35;;
77146;SDS011;66121;52.584;9.694;2024-01-30T05:31:20;19.90;;;12.30;;
77146;SDS011;66121;52.584;9.694;2024-01-30T05:33:46;16.33;;;10.52;;
77146;SDS011;66121;52.584;9.694;2024-01-30T05:36:12;14.98;;;8.55;;
77146;SDS011;66121;52.584;9.694;2024-01-30T05:38:40;17.38;;;8.88;;
77146;SDS011;66121;52.584;9.694;2024-01-30T05:41:06;18.88;;;10.60;;
77146;SDS011;66121;52.584;9.694;2024-01-30T05:43:31;17.65;;;10.82;;
77146;SDS011;66121;52.584;9.694;2024-01-30T05:45:56;22.33;;;10.87;;
77146;SDS011;66121;52.584;9.694;2024-01-30T05:48:22;16.50;;;9.00;;
77146;SDS011;66121;52.584;9.694;2024-01-30T05:50:47;20.48;;;10.50;;
77146;SDS011;66121;52.584;9.694;2024-01-30T05:53:12;15.73;;;8.27;;
77146;SDS011;66121;52.584;9.694;2024-01-30T05:55:38;16.33;;;8.77;;
77146;SDS011;66121;52.584;9.694;2024-01-30T05:58:03;13.53;;;8.23;;
77146;SDS011;66121;52.584;9.694;2024-01-30T06:00:29;17.17;;;8.52;;
77146;SDS011;66121;52.584;9.694;2024-01-30T06:02:54;18.70;;;10.10;;
77146;SDS011;66121;52.584;9.694;2024-01-30T06:05:20;14.35;;;9.02;;
77146;SDS011;66121;52.584;9.694;2024-01-30T06:07:45;18.63;;;9.38;;
77146;SDS011;66121;52.584;9.694;2024-01-30T06:10:10;17.75;;;9.60;;
77146;SDS011;66121;52.584;9.694;2024-01-30T06:12:36;16.23;;;9.02;;
77146;SDS011;66121;52.584;9.694;2024-01-30T06:15:01;15.52;;;8.88;;
77146;SDS011;66121;52.584;9.694;2024-01-30T06:17:29;16.77;;;9.40;;
77146;SDS011;66121;52.584;9.694;2024-01-30T06:19:54;15.43;;;9.37;;
77146;SDS011;66121;52.584;9.694;2024-01-30T06:22:20;15.27;;;8.85;;
77146;SDS011;66121;52.584;9.694;2024-01-30T06:24:45;24.87;;;10.00;;
77146;SDS011;66121;52.584;9.694;2024-01-30T06:27:12;18.33;;;9.32;;
77146;SDS011;66121;52.584;9.694;2024-01-30T06:29:38;16.83;;;9.25;;
77146;SDS011;66121;52.584;9.694;2024-01-30T06:32:03;16.85;;;9.85;;
77146;SDS011;66121;52.584;9.694;2024-01-30T06:34:29;18.33;;;10.02;;
77146;SDS011;66121;52.584;9.694;2024-01-30T06:36:55;20.67;;;9.57;;
77146;SDS011;66121;52.584;9.694;2024-01-30T06:39:20;17.23;;;9.63;;
77146;SDS011;66121;52.584;9.694;2024-01-30T06:41:45;16.30;;;9.45;;
77146;SDS011;66121;52.584;9.694;2024-01-30T06:44:12;15.52;;;8.23;;
77146;SDS011;66121;52.584;9.694;2024-01-30T06:46:37;16.73;;;10.30;;
77146;SDS011;66121;52.584;9.694;2024-01-30T06:49:03;18.50;;;9.75;;
77146;SDS011;66121;52.584;9.694;2024-01-30T06:51:29;18.98;;;10.25;;
77146;SDS011;66121;52.584;9.694;2024-01-30T06:53:54;20.42;;;9.73;;
77146;SDS011;66121;52.584;9.694;2024-01-30T06:56:19;21.00;;;10.82;;
77146;SDS011;66121;52.584;9.694;2024-01-30T06:58:49;19.10;;;9.77;;
77146;SDS011;66121;52.584;9.694;2024-01-30T07:01:15;18.70;;;9.98;;
77146;SDS011;66121;52.584;9.694;2024-01-30T07:03:41;14.27;;;8.95;;
77146;SDS011;66121;52.584;9.694;2024-01-30T07:06:07;19.88;;;8.95;;
77146;SDS011;66121;52.584;9.694;2024-01-30T07:08:32;16.45;;;9.23;;
77146;SDS011;66121;52.584;9.694;2024-01-30T07:10:58;20.00;;;11.13;;
77146;SDS011;66121;52.584;9.694;2024-01-30T07:13:23;46.67;;;17.73;;
77146;SDS011;66121;52.584;9.694;2024-01-30T07:15:49;22.67;;;10.38;;
77146;SDS011;66121;52.584;9.694;2024-01-30T07:18:14;16.30;;;9.73;;
77146;SDS011;66121;52.584;9.694;2024-01-30T07:20:40;19.53;;;9.90;;
77146;SDS011;66121;52.584;9.694;2024-01-30T07:23:13;15.30;;;9.45;;
77146;SDS011;66121;52.584;9.694;2024-01-30T07:25:41;16.70;;;9.65;;
77146;SDS011;66121;52.584;9.694;2024-01-30T07:28:10;13.32;;;8.18;;
77146;SDS011;66121;52.584;9.694;2024-01-30T07:30:36;16.80;;;9.25;;
77146;SDS011;66121;52.584;9.694;2024-01-30T07:33:02;16.92;;;9.18;;
77146;SDS011;66121;52.584;9.694;2024-01-30T07:35:27;15.45;;;8.77;;
77146;SDS011;66121;52.584;9.694;2024-01-30T07:37:52;13.68;;;7.00;;
77146;SDS011;66121;52.584;9.694;2024-01-30T07:40:18;13.57;;;7.60;;
77146;SDS011;66121;52.584;9.694;2024-01-30T07:42:43;18.10;;;9.15;;
77146;SDS011;66121;52.584;9.694;2024-01-30T07:45:09;18.50;;;8.27;;
77146;SDS011;66121;52.584;9.694;2024-01-30T07:47:34;15.45;;;8.45;;
77146;SDS011;66121;52.584;9.694;2024-01-30T07:50:00;16.27;;;9.40;;
77146;SDS011;66121;52.584;9.694;2024-01-30T07:52:25;16.58;;;9.38;;
77146;SDS011;66121;52.584;9.694;2024-01-30T07:54:51;11.87;;;7.13;;
77146;SDS011;66121;52.584;9.694;2024-01-30T07:57:16;17.10;;;8.95;;
77146;SDS011;66121;52.584;9.694;2024-01-30T07:59:42;16.70;;;9.45;;
77146;SDS011;66121;52.584;9.694;2024-01-30T08:02:09;12.38;;;8.10;;
77146;SDS011;66121;52.584;9.694;2024-01-30T08:04:35;15.82;;;9.25;;
77146;SDS011;66121;52.584;9.694;2024-01-30T08:07:00;17.52;;;8.70;;
77146;SDS011;66121;52.584;9.694;2024-01-30T08:09:26;14.80;;;8.70;;
77146;SDS011;66121;52.584;9.694;2024-01-30T08:11:51;16.35;;;8.43;;
77146;SDS011;66121;52.584;9.694;2024-01-30T08:14:17;11.98;;;7.80;;
77146;SDS011;66121;52.584;9.694;2024-01-30T08:16:42;16.50;;;9.50;;
77146;SDS011;66121;52.584;9.694;2024-01-30T08:19:07;14.17;;;8.27;;
77146;SDS011;66121;52.584;9.694;2024-01-30T08:21:33;16.13;;;9.07;;
77146;SDS011;66121;52.584;9.694;2024-01-30T08:24:02;16.80;;;9.45;;
77146;SDS011;66121;52.584;9.694;2024-01-30T08:26:31;14.98;;;8.10;;
77146;SDS011;66121;52.584;9.694;2024-01-30T08:28:57;20.00;;;9.70;;
77146;SDS011;66121;52.584;9.694;2024-01-30T08:31:22;14.05;;;8.57;;
77146;SDS011;66121;52.584;9.694;2024-01-30T08:33:48;15.90;;;8.77;;
77146;SDS011;66121;52.584;9.694;2024-01-30T08:36:13;17.27;;;9.77;;
77146;SDS011;66121;52.584;9.694;2024-01-30T08:38:39;16.27;;;9.10;;
77146;SDS011;66121;52.584;9.694;2024-01-30T08:41:04;17.03;;;9.03;;
77146;SDS011;66121;52.584;9.694;2024-01-30T08:43:30;16.65;;;10.02;;
77146;SDS011;66121;52.584;9.694;2024-01-30T08:45:55;17.80;;;10.30;;
77146;SDS011;66121;52.584;9.694;2024-01-30T08:48:22;20.73;;;8.50;;
77146;SDS011;66121;52.584;9.694;2024-01-30T08:50:47;16.13;;;9.07;;
77146;SDS011;66121;52.584;9.694;2024-01-30T08:53:13;16.23;;;8.77;;
77146;SDS011;66121;52.584;9.694;2024-01-30T08:55:38;17.53;;;8.47;;
77146;SDS011;66121;52.584;9.694;2024-01-30T08:58:04;17.52;;;9.88;;
77146;SDS011;66121;52.584;9.694;2024-01-30T09:00:30;13.70;;;7.82;;
77146;SDS011;66121;52.584;9.694;2024-01-30T09:02:55;15.00;;;7.68;;
77146;SDS011;66121;52.584;9.694;2024-01-30T09:05:20;16.30;;;9.48;;
77146;SDS011;66121;52.584;9.694;2024-01-30T09:07:46;15.57;;;9.05;;
77146;SDS011;66121;52.584;9.694;2024-01-30T09:10:11;13.63;;;9.07;;
77146;SDS011;66121;52.584;9.694;2024-01-30T09:12:36;15.95;;;9.68;;
77146;SDS011;66121;52.584;9.694;2024-01-30T09:15:03;18.88;;;9.15;;
77146;SDS011;66121;52.584;9.694;2024-01-30T09:17:28;17.73;;;10.00;;
77146;SDS011;66121;52.584;9.694;2024-01-30T09:19:54;15.38;;;9.25;;
77146;SDS011;66121;52.584;9.694;2024-01-30T09:22:20;13.27;;;7.78;;
77146;SDS011;66121;52.584;9.694;2024-01-30T09:24:45;16.02;;;8.57;;
77146;SDS011;66121;52.584;9.694;2024-01-30T09:27:10;17.75;;;8.38;;
77146;SDS011;66121;52.584;9.694;2024-01-30T09:29:36;13.83;;;9.03;;
77146;SDS011;66121;52.584;9.694;2024-01-30T09:32:01;16.75;;;8.27;;
77146;SDS011;66121;52.584;9.694;2024-01-30T09:34:27;15.25;;;8.77;;
77146;SDS011;66121;52.584;9.694;2024-01-30T09:36:52;16.93;;;9.23;;
77146;SDS011;66121;52.584;9.694;2024-01-30T09:39:17;19.38;;;9.43;;
77146;SDS011;66121;52.584;9.694;2024-01-30T09:41:45;15.32;;;7.55;;
77146;SDS011;66121;52.584;9.694;2024-01-30T09:44:17;18.48;;;8.82;;
77146;SDS011;66121;52.584;9.694;2024-01-30T09:46:46;16.63;;;8.50;;
77146;SDS011;66121;52.584;9.694;2024-01-30T09:49:13;14.70;;;8.50;;
77146;SDS011;66121;52.584;9.694;2024-01-30T09:51:39;14.35;;;8.20;;
77146;SDS011;66121;52.584;9.694;2024-01-30T09:54:05;16.33;;;8.85;;
77146;SDS011;66121;52.584;9.694;2024-01-30T09:56:33;16.65;;;8.30;;
77146;SDS011;66121;52.584;9.694;2024-01-30T09:58:58;17.85;;;8.90;;
77146;SDS011;66121;52.584;9.694;2024-01-30T10:01:24;14.43;;;7.97;;
77146;SDS011;66121;52.584;9.694;2024-01-30T10:03:50;15.40;;;9.75;;
77146;SDS011;66121;52.584;9.694;2024-01-30T10:06:17;16.60;;;8.98;;
77146;SDS011;66121;52.584;9.694;2024-01-30T10:08:43;14.57;;;8.30;;
77146;SDS011;66121;52.584;9.694;2024-01-30T10:11:09;14.77;;;7.77;;
77146;SDS011;66121;52.584;9.694;2024-01-30T10:13:34;15.73;;;8.95;;
77146;SDS011;66121;52.584;9.694;2024-01-30T10:16:00;16.75;;;9.13;;
77146;SDS011;66121;52.584;9.694;2024-01-30T10:18:28;14.45;;;8.48;;
77146;SDS011;66121;52.584;9.694;2024-01-30T10:20:53;15.05;;;9.63;;
77146;SDS011;66121;52.584;9.694;2024-01-30T10:23:19;14.95;;;8.43;;
77146;SDS011;66121;52.584;9.694;2024-01-30T10:25:45;15.05;;;8.43;;
77146;SDS011;66121;52.584;9.694;2024-01-30T10:28:11;16.48;;;8.48;;
77146;SDS011;66121;52.584;9.694;2024-01-30T10:30:36;18.17;;;9.13;;
77146;SDS011;66121;52.584;9.694;2024-01-30T10:33:02;14.27;;;8.35;;
77146;SDS011;66121;52.584;9.694;2024-01-30T10:35:27;18.42;;;9.57;;
77146;SDS011;66121;52.584;9.694;2024-01-30T10:37:52;15.13;;;7.90;;
77146;SDS011;66121;52.584;9.694;2024-01-30T10:40:22;14.63;;;8.68;;
77146;SDS011;66121;52.584;9.694;2024-01-30T10:42:54;18.75;;;8.70;;
77146;SDS011;66121;52.584;9.694;2024-01-30T10:45:21;15.75;;;8.88;;
77146;SDS011;66121;52.584;9.694;2024-01-30T10:47:50;13.90;;;9.00;;
77146;SDS011;66121;52.584;9.694;2024-01-30T10:50:19;14.10;;;9.07;;
77146;SDS011;66121;52.584;9.694;2024-01-30T10:52:45;19.55;;;9.35;;
77146;SDS011;66121;52.584;9.694;2024-01-30T10:55:12;13.77;;;8.88;;
77146;SDS011;66121;52.584;9.694;2024-01-30T10:57:40;15.23;;;9.18;;
77146;SDS011;66121;52.584;9.694;2024-01-30T11:00:10;15.20;;;9.57;;
77146;SDS011;66121;52.584;9.694;2024-01-30T11:05:07;12.57;;;8.35;;
77146;SDS011;66121;52.584;9.694;2024-01-30T11:07:33;13.93;;;8.43;;
77146;SDS011;66121;52.584;9.694;2024-01-30T11:12:29;17.50;;;8.75;;
77146;SDS011;66121;52.584;9.694;2024-01-30T11:17:41;15.60;;;8.82;;
77146;SDS011;66121;52.584;9.694;2024-01-30T11:20:09;15.60;;;9.18;;
77146;SDS011;66121;52.584;9.694;2024-01-30T11:22:36;17.52;;;9.40;;
77146;SDS011;66121;52.584;9.694;2024-01-30T11:25:02;10.77;;;7.05;;
77146;SDS011;66121;52.584;9.694;2024-01-30T11:27:28;15.75;;;9.10;;
77146;SDS011;66121;52.584;9.694;2024-01-30T11:30:00;16.42;;;8.88;;
77146;SDS011;66121;52.584;9.694;2024-01-30T11:32:26;16.98;;;8.85;;
77146;SDS011;66121;52.584;9.694;2024-01-30T11:34:52;15.63;;;7.80;;
77146;SDS011;66121;52.584;9.694;2024-01-30T11:37:19;16.73;;;8.93;;
77146;SDS011;66121;52.584;9.694;2024-01-30T11:39:46;11.15;;;7.78;;
77146;SDS011;66121;52.584;9.694;2024-01-30T11:42:13;13.23;;;8.50;;
77146;SDS011;66121;52.584;9.694;2024-01-30T11:44:38;13.68;;;8.02;;
77146;SDS011;66121;52.584;9.694;2024-01-30T11:47:04;13.80;;;8.27;;
77146;SDS011;66121;52.584;9.694;2024-01-30T11:49:29;12.90;;;7.60;;
77146;SDS011;66121;52.584;9.694;2024-01-30T11:51:54;13.30;;;7.90;;
77146;SDS011;66121;52.584;9.694;2024-01-30T11:54:20;13.80;;;8.02;;
77146;SDS011;66121;52.584;9.694;2024-01-30T11:56:45;14.80;;;9.07;;
77146;SDS011;66121;52.584;9.694;2024-01-30T11:59:11;15.18;;;8.18;;
77146;SDS011;66121;52.584;9.694;2024-01-30T12:01:36;12.38;;;7.50;;
77146;SDS011;66121;52.584;9.694;2024-01-30T12:04:01;15.68;;;8.90;;
77146;SDS011;66121;52.584;9.694;2024-01-30T12:06:28;12.35;;;8.05;;
77146;SDS011;66121;52.584;9.694;2024-01-30T12:08:57;12.75;;;8.13;;
77146;SDS011;66121;52.584;9.694;2024-01-30T12:11:24;13.93;;;7.57;;
77146;SDS011;66121;52.584;9.694;2024-01-30T12:13:49;13.40;;;7.13;;
77146;SDS011;66121;52.584;9.694;2024-01-30T12:16:16;15.32;;;7.32;;
77146;SDS011;66121;52.584;9.694;2024-01-30T12:18:42;13.15;;;7.82;;
77146;SDS011;66121;52.584;9.694;2024-01-30T12:21:07;12.50;;;7.15;;
77146;SDS011;66121;52.584;9.694;2024-01-30T12:23:34;12.32;;;6.82;;
77146;SDS011;66121;52.584;9.694;2024-01-30T12:26:00;13.05;;;7.63;;
77146;SDS011;66121;52.584;9.694;2024-01-30T12:28:27;13.02;;;6.63;;
77146;SDS011;66121;52.584;9.694;2024-01-30T12:30:56;12.90;;;7.60;;
77146;SDS011;66121;52.584;9.694;2024-01-30T12:33:24;12.32;;;7.80;;
77146;SDS011;66121;52.584;9.694;2024-01-30T12:35:51;12.05;;;7.30;;
77146;SDS011;66121;52.584;9.694;2024-01-30T12:38:17;13.25;;;7.40;;
77146;SDS011;66121;52.584;9.694;2024-01-30T12:40:42;11.57;;;6.95;;
77146;SDS011;66121;52.584;9.694;2024-01-30T12:43:08;11.90;;;7.57;;
77146;SDS011;66121;52.584;9.694;2024-01-30T12:45:33;12.10;;;6.70;;
77146;SDS011;66121;52.584;9.694;2024-01-30T12:47:59;10.82;;;6.47;;
77146;SDS011;66121;52.584;9.694;2024-01-30T12:50:24;12.98;;;6.57;;
77146;SDS011;66121;52.584;9.694;2024-01-30T12:52:50;13.27;;;7.77;;
77146;SDS011;66121;52.584;9.694;2024-01-30T12:55:15;10.77;;;7.15;;
77146;SDS011;66121;52.584;9.694;2024-01-30T12:57:41;14.57;;;7.05;;
77146;SDS011;66121;52.584;9.694;2024-01-30T13:00:08;12.60;;;6.68;;
77146;SDS011;66121;52.584;9.694;2024-01-30T13:02:34;11.93;;;6.72;;
77146;SDS011;66121;52.584;9.694;2024-01-30T13:05:02;12.90;;;6.03;;
77146;SDS011;66121;52.584;9.694;2024-01-30T13:07:30;11.15;;;6.75;;
77146;SDS011;66121;52.584;9.694;2024-01-30T13:09:56;12.00;;;6.60;;
77146;SDS011;66121;52.584;9.694;2024-01-30T13:12:28;11.18;;;7.35;;
77146;SDS011;66121;52.584;9.694;2024-01-30T13:14:55;10.68;;;6.55;;
77146;SDS011;66121;52.584;9.694;2024-01-30T13:17:20;10.38;;;6.22;;
77146;SDS011;66121;52.584;9.694;2024-01-30T13:19:46;11.57;;;6.40;;
77146;SDS011;66121;52.584;9.694;2024-01-30T13:22:11;10.27;;;6.72;;
77146;SDS011;66121;52.584;9.694;2024-01-30T13:24:37;11.30;;;7.07;;
77146;SDS011;66121;52.584;9.694;2024-01-30T13:27:02;14.47;;;6.63;;
77146;SDS011;66121;52.584;9.694;2024-01-30T13:29:30;12.48;;;6.47;;
77146;SDS011;66121;52.584;9.694;2024-01-30T13:31:56;15.63;;;6.47;;
77146;SDS011;66121;52.584;9.694;2024-01-30T13:34:21;13.93;;;6.70;;
77146;SDS011;66121;52.584;9.694;2024-01-30T13:36:46;12.00;;;5.65;;
77146;SDS011;66121;52.584;9.694;2024-01-30T13:39:13;12.60;;;7.18;;
77146;SDS011;66121;52.584;9.694;2024-01-30T13:41:39;14.27;;;7.45;;
77146;SDS011;66121;52.584;9.694;2024-01-30T13:44:06;12.25;;;6.15;;
77146;SDS011;66121;52.584;9.694;2024-01-30T13:46:31;10.85;;;5.95;;
77146;SDS011;66121;52.584;9.694;2024-01-30T13:48:57;11.13;;;6.78;;
77146;SDS011;66121;52.584;9.694;2024-01-30T13:51:22;12.45;;;6.68;;
77146;SDS011;66121;52.584;9.694;2024-01-30T13:53:48;15.65;;;7.57;;
77146;SDS011;66121;52.584;9.694;2024-01-30T13:56:15;12.82;;;6.32;;
77146;SDS011;66121;52.584;9.694;2024-01-30T13:58:40;12.27;;;7.05;;
77146;SDS011;66121;52.584;9.694;2024-01-30T14:01:06;11.40;;;6.70;;
77146;SDS011;66121;52.584;9.694;2024-01-30T14:03:31;11.93;;;6.45;;
77146;SDS011;66121;52.584;9.694;2024-01-30T14:05:57;10.93;;;6.38;;
77146;SDS011;66121;52.584;9.694;2024-01-30T14:08:23;14.10;;;7.20;;
77146;SDS011;66121;52.584;9.694;2024-01-30T14:10:51;13.77;;;6.90;;
77146;SDS011;66121;52.584;9.694;2024-01-30T14:13:17;11.25;;;7.07;;
77146;SDS011;66121;52.584;9.694;2024-01-30T14:15:42;12.68;;;6.68;;
77146;SDS011;66121;52.584;9.694;2024-01-30T14:18:08;11.50;;;6.55;;
77146;SDS011;66121;52.584;9.694;2024-01-30T14:20:34;13.98;;;6.85;;
77146;SDS011;66121;52.584;9.694;2024-01-30T14:22:59;13.25;;;6.80;;
77146;SDS011;66121;52.584;9.694;2024-01-30T14:25:25;13.25;;;6.47;;
77146;SDS011;66121;52.584;9.694;2024-01-30T14:27:51;12.60;;;6.20;;
77146;SDS011;66121;52.584;9.694;2024-01-30T14:30:17;14.25;;;6.68;;